createdAt,value
2018-03-26T00:00:51.550Z,4.50
2018-03-26T00:01:51.549Z,4.46
2018-03-26T00:02:51.542Z,4.54
2018-03-26T00:03:51.537Z,4.54
2018-03-26T00:04:51.531Z,4.46
2018-03-26T00:05:51.530Z,4.55
2018-03-26T00:06:51.527Z,4.62
2018-03-26T00:07:51.523Z,4.51
2018-03-26T00:08:51.519Z,4.61
2018-03-26T00:09:51.512Z,4.52
2018-03-26T00:10:51.510Z,4.47
2018-03-26T00:11:51.507Z,4.50
2018-03-26T00:12:51.502Z,4.47
2018-03-26T00:13:51.497Z,4.50
2018-03-26T00:14:51.495Z,4.44
2018-03-26T00:15:51.490Z,4.37
2018-03-26T00:16:51.487Z,4.37
2018-03-26T00:17:51.481Z,4.43
2018-03-26T00:18:51.477Z,4.39
2018-03-26T00:19:51.479Z,4.42
2018-03-26T00:20:51.472Z,4.36
2018-03-26T00:21:51.503Z,4.33
2018-03-26T00:22:51.462Z,4.33
2018-03-26T00:23:51.457Z,4.36
2018-03-26T00:24:51.454Z,4.29
2018-03-26T00:25:51.450Z,4.36
2018-03-26T00:26:51.446Z,4.32
2018-03-26T00:27:51.442Z,4.28
2018-03-26T00:28:51.439Z,4.34
2018-03-26T00:29:51.435Z,4.36
2018-03-26T00:30:51.429Z,4.39
2018-03-26T00:31:51.426Z,4.42
2018-03-26T00:32:51.419Z,4.34
2018-03-26T00:33:51.417Z,4.36
2018-03-26T00:34:51.459Z,4.51
2018-03-26T00:35:51.410Z,4.44
2018-03-26T00:36:51.405Z,4.43
2018-03-26T00:37:51.400Z,4.52
2018-03-26T00:38:51.399Z,4.51
2018-03-26T00:39:51.399Z,4.44
2018-03-26T00:40:51.389Z,4.54
2018-03-26T00:41:51.386Z,4.44
2018-03-26T00:42:51.380Z,4.42
2018-03-26T00:43:51.379Z,4.55
2018-03-26T00:44:51.373Z,4.50
2018-03-26T00:45:51.371Z,4.43
2018-03-26T00:46:51.365Z,4.43
2018-03-26T00:47:51.362Z,4.33
2018-03-26T00:48:51.358Z,4.32
2018-03-26T00:49:51.351Z,4.33
2018-03-26T00:50:51.351Z,4.33
2018-03-26T00:51:51.344Z,4.32
2018-03-26T00:52:51.342Z,4.40
2018-03-26T00:53:51.336Z,4.40
2018-03-26T00:54:51.333Z,4.44
2018-03-26T00:55:51.330Z,4.44
2018-03-26T00:56:51.324Z,4.39
2018-03-26T00:57:51.322Z,4.32
2018-03-26T00:58:51.316Z,4.51
2018-03-26T00:59:51.316Z,4.42
2018-03-26T01:00:51.310Z,4.46
2018-03-26T01:01:51.305Z,4.44
2018-03-26T01:02:51.302Z,4.40
2018-03-26T01:03:51.301Z,4.34
2018-03-26T01:04:51.290Z,4.34
2018-03-26T01:05:51.352Z,4.36
2018-03-26T01:06:51.284Z,4.32
2018-03-26T01:07:51.280Z,4.32
2018-03-26T01:08:51.278Z,4.29
2018-03-26T01:09:51.273Z,4.26
2018-03-26T01:10:51.268Z,4.34
2018-03-26T01:11:51.265Z,4.25
2018-03-26T01:12:51.267Z,4.36
2018-03-26T01:13:51.255Z,4.29
2018-03-26T01:14:51.258Z,4.28
2018-03-26T01:15:51.248Z,4.32
2018-03-26T01:16:51.244Z,4.34
2018-03-26T01:17:51.237Z,4.26
2018-03-26T01:18:51.236Z,4.19
2018-03-26T01:19:51.232Z,4.33
2018-03-26T01:20:51.228Z,4.28
2018-03-26T01:21:51.224Z,4.36
2018-03-26T01:22:51.223Z,4.33
2018-03-26T01:23:51.215Z,4.39
2018-03-26T01:24:51.211Z,4.32
2018-03-26T01:25:51.206Z,4.36
2018-03-26T01:26:51.203Z,4.32
2018-03-26T01:27:51.198Z,4.29
2018-03-26T01:28:51.193Z,4.34
2018-03-26T01:29:51.191Z,4.26
2018-03-26T01:30:51.184Z,4.24
2018-03-26T01:31:51.181Z,4.33
2018-03-26T01:32:51.177Z,4.22
2018-03-26T01:33:51.172Z,4.25
2018-03-26T01:34:51.170Z,4.21
2018-03-26T01:35:51.162Z,4.19
2018-03-26T01:36:51.161Z,4.18
2018-03-26T01:37:51.176Z,4.14
2018-03-26T01:38:51.156Z,4.22
2018-03-26T01:39:51.149Z,4.22
2018-03-26T01:40:51.146Z,4.19
2018-03-26T01:41:51.140Z,4.29
2018-03-26T01:42:51.136Z,4.32
2018-03-26T01:43:51.136Z,4.21
2018-03-26T01:44:51.127Z,4.22
2018-03-26T01:45:51.124Z,4.28
2018-03-26T01:46:51.125Z,4.21
2018-03-26T01:47:51.116Z,4.26
2018-03-26T01:48:51.113Z,4.21
2018-03-26T01:49:51.110Z,4.18
2018-03-26T01:50:51.104Z,4.21
2018-03-26T01:51:51.104Z,4.16
2018-03-26T01:52:51.094Z,4.18
2018-03-26T01:53:51.094Z,4.19
2018-03-26T01:54:51.085Z,4.15
2018-03-26T01:55:51.079Z,4.08
2018-03-26T01:56:51.080Z,4.15
2018-03-26T01:57:51.074Z,4.14
2018-03-26T01:58:51.068Z,4.15
2018-03-26T01:59:51.065Z,4.10
2018-03-26T02:00:51.070Z,4.16
2018-03-26T02:01:51.057Z,4.10
2018-03-26T02:02:51.059Z,4.22
2018-03-26T02:03:51.049Z,4.18
2018-03-26T02:04:51.048Z,4.19
2018-03-26T02:05:51.040Z,4.08
2018-03-26T02:06:51.036Z,4.12
2018-03-26T02:07:51.032Z,4.18
2018-03-26T02:08:51.026Z,4.18
2018-03-26T02:09:51.024Z,4.15
2018-03-26T02:10:51.020Z,4.15
2018-03-26T02:11:51.018Z,4.22
2018-03-26T02:12:51.017Z,4.15
2018-03-26T02:13:51.005Z,4.04
2018-03-26T02:14:51.001Z,4.08
2018-03-26T02:15:50.996Z,4.08
2018-03-26T02:16:50.993Z,4.03
2018-03-26T02:17:50.988Z,4.08
2018-03-26T02:18:50.985Z,4.01
2018-03-26T02:19:50.982Z,4.00
2018-03-26T02:20:50.977Z,3.89
2018-03-26T02:21:50.973Z,3.94
2018-03-26T02:22:50.965Z,3.92
2018-03-26T02:23:50.961Z,3.86
2018-03-26T02:24:50.958Z,3.83
2018-03-26T02:25:51.010Z,3.78
2018-03-26T02:26:50.952Z,3.79
2018-03-26T02:27:50.946Z,3.76
2018-03-26T02:28:50.941Z,3.79
2018-03-26T02:29:50.938Z,3.83
2018-03-26T02:30:50.936Z,3.85
2018-03-26T02:31:50.932Z,3.88
2018-03-26T02:32:50.926Z,3.85
2018-03-26T02:33:50.924Z,3.88
2018-03-26T02:34:50.918Z,3.97
2018-03-26T02:35:50.913Z,3.90
2018-03-26T02:36:50.909Z,3.79
2018-03-26T02:37:50.905Z,3.76
2018-03-26T02:38:50.900Z,3.89
2018-03-26T02:39:50.896Z,3.85
2018-03-26T02:40:50.890Z,3.85
2018-03-26T02:41:50.885Z,3.86
2018-03-26T02:42:50.882Z,3.79
2018-03-26T02:43:50.880Z,3.85
2018-03-26T02:44:50.873Z,3.83
2018-03-26T02:45:50.869Z,3.80
2018-03-26T02:46:50.865Z,3.89
2018-03-26T02:47:50.860Z,3.92
2018-03-26T02:48:50.858Z,3.85
2018-03-26T02:49:50.850Z,3.92
2018-03-26T02:50:50.847Z,3.96
2018-03-26T02:51:50.844Z,3.90
2018-03-26T02:52:50.836Z,3.92
2018-03-26T02:53:50.834Z,3.94
2018-03-26T02:54:50.834Z,3.94
2018-03-26T02:55:50.827Z,3.89
2018-03-26T02:56:50.823Z,3.89
2018-03-26T02:57:50.818Z,3.83
2018-03-26T02:58:50.813Z,3.89
2018-03-26T02:59:50.821Z,3.92
2018-03-26T03:00:50.828Z,3.89
2018-03-26T03:01:50.799Z,3.88
2018-03-26T03:02:50.795Z,3.90
2018-03-26T03:03:50.792Z,3.96
2018-03-26T03:04:50.786Z,3.94
2018-03-26T03:05:50.795Z,3.94
2018-03-26T03:06:50.780Z,3.96
2018-03-26T03:07:50.772Z,3.92
2018-03-26T03:08:50.767Z,3.92
2018-03-26T03:09:50.763Z,3.92
2018-03-26T03:10:50.758Z,3.90
2018-03-26T03:11:50.754Z,3.89
2018-03-26T03:12:50.748Z,3.89
2018-03-26T03:13:50.746Z,3.85
2018-03-26T03:14:50.740Z,3.83
2018-03-26T03:15:50.737Z,3.79
2018-03-26T03:16:50.735Z,3.86
2018-03-26T03:17:50.726Z,3.80
2018-03-26T03:18:50.726Z,3.70
2018-03-26T03:19:50.728Z,3.83
2018-03-26T03:20:50.714Z,3.75
2018-03-26T03:21:50.710Z,3.78
2018-03-26T03:22:50.706Z,3.78
2018-03-26T03:23:50.700Z,3.76
2018-03-26T03:24:50.697Z,3.72
2018-03-26T03:25:50.692Z,3.76
2018-03-26T03:26:50.688Z,3.79
2018-03-26T03:27:50.682Z,3.71
2018-03-26T03:28:50.677Z,3.67
2018-03-26T03:29:50.675Z,3.75
2018-03-26T03:30:50.679Z,3.72
2018-03-26T03:31:50.665Z,3.72
2018-03-26T03:32:50.660Z,3.72
2018-03-26T03:33:50.663Z,3.75
2018-03-26T03:34:50.651Z,3.76
2018-03-26T03:35:50.650Z,3.78
2018-03-26T03:36:50.642Z,3.79
2018-03-26T03:37:50.636Z,3.75
2018-03-26T03:38:50.633Z,3.78
2018-03-26T03:39:50.628Z,3.78
2018-03-26T03:40:50.625Z,3.78
2018-03-26T03:41:50.622Z,3.79
2018-03-26T03:42:50.615Z,3.76
2018-03-26T03:43:50.611Z,3.78
2018-03-26T03:44:50.604Z,3.79
2018-03-26T03:45:50.601Z,3.80
2018-03-26T03:46:50.595Z,3.89
2018-03-26T03:47:50.592Z,3.86
2018-03-26T03:48:50.587Z,3.71
2018-03-26T03:49:50.583Z,3.72
2018-03-26T03:50:50.620Z,3.82
2018-03-26T03:51:50.575Z,3.79
2018-03-26T03:52:50.569Z,3.82
2018-03-26T03:53:50.564Z,3.76
2018-03-26T03:54:50.562Z,3.86
2018-03-26T03:55:50.556Z,3.72
2018-03-26T03:56:50.550Z,3.76
2018-03-26T03:57:50.547Z,3.76
2018-03-26T03:58:50.545Z,3.72
2018-03-26T03:59:50.537Z,3.71
2018-03-26T04:00:50.531Z,3.71
2018-03-26T04:01:50.528Z,3.76
2018-03-26T04:02:50.528Z,3.68
2018-03-26T04:03:50.519Z,3.82
2018-03-26T04:04:50.515Z,3.72
2018-03-26T04:05:50.510Z,3.75
2018-03-26T04:06:50.506Z,3.72
2018-03-26T04:07:50.501Z,3.68
2018-03-26T04:08:50.497Z,3.65
2018-03-26T04:09:50.492Z,3.70
2018-03-26T04:10:50.495Z,3.68
2018-03-26T04:11:50.485Z,3.67
2018-03-26T04:12:50.477Z,3.70
2018-03-26T04:13:50.474Z,3.67
2018-03-26T04:14:50.468Z,3.67
2018-03-26T04:15:50.466Z,3.71
2018-03-26T04:16:50.458Z,3.65
2018-03-26T04:17:50.478Z,3.71
2018-03-26T04:18:50.449Z,3.70
2018-03-26T04:19:50.446Z,3.70
2018-03-26T04:20:50.443Z,3.67
2018-03-26T04:21:50.437Z,3.71
2018-03-26T04:22:50.434Z,3.72
2018-03-26T04:23:50.428Z,3.71
2018-03-26T04:24:50.420Z,3.72
2018-03-26T04:25:50.454Z,3.67
2018-03-26T04:26:50.414Z,3.71
2018-03-26T04:27:50.409Z,3.71
2018-03-26T04:28:50.405Z,3.71
2018-03-26T04:29:50.399Z,3.57
2018-03-26T04:30:50.397Z,3.70
2018-03-26T04:31:50.391Z,3.62
2018-03-26T04:32:50.389Z,3.72
2018-03-26T04:33:50.379Z,3.71
2018-03-26T04:34:50.377Z,3.76
2018-03-26T04:35:50.371Z,3.78
2018-03-26T04:36:50.371Z,3.76
2018-03-26T04:37:50.364Z,3.71
2018-03-26T04:38:50.358Z,3.76
2018-03-26T04:39:50.353Z,3.76
2018-03-26T04:40:50.348Z,3.82
2018-03-26T04:41:50.343Z,3.78
2018-03-26T04:42:50.341Z,3.71
2018-03-26T04:43:50.333Z,3.76
2018-03-26T04:44:50.329Z,3.70
2018-03-26T04:45:50.325Z,3.70
2018-03-26T04:46:50.322Z,3.71
2018-03-26T04:47:50.316Z,3.68
2018-03-26T04:48:50.310Z,3.57
2018-03-26T04:49:50.305Z,3.58
2018-03-26T04:50:50.305Z,3.61
2018-03-26T04:51:50.299Z,3.58
2018-03-26T04:52:50.293Z,3.62
2018-03-26T04:53:50.290Z,3.61
2018-03-26T04:54:50.284Z,3.57
2018-03-26T04:55:50.285Z,3.54
2018-03-26T04:56:50.280Z,3.65
2018-03-26T04:57:50.271Z,3.60
2018-03-26T04:58:50.270Z,3.53
2018-03-26T04:59:50.261Z,3.60
2018-03-26T05:00:50.255Z,3.52
2018-03-26T05:01:50.252Z,3.62
2018-03-26T05:02:50.247Z,3.53
2018-03-26T05:03:50.242Z,3.53
2018-03-26T05:04:50.237Z,3.61
2018-03-26T05:05:50.233Z,3.53
2018-03-26T05:06:50.228Z,3.61
2018-03-26T05:07:50.222Z,3.61
2018-03-26T05:08:50.221Z,3.62
2018-03-26T05:09:50.243Z,3.61
2018-03-26T05:10:50.223Z,3.65
2018-03-26T05:11:50.205Z,3.61
2018-03-26T05:12:50.200Z,3.67
2018-03-26T05:13:50.197Z,3.58
2018-03-26T05:14:50.194Z,3.62
2018-03-26T05:15:50.187Z,3.61
2018-03-26T05:16:50.178Z,3.60
2018-03-26T05:17:50.176Z,3.65
2018-03-26T05:18:50.174Z,3.65
2018-03-26T05:19:50.165Z,3.64
2018-03-26T05:20:50.163Z,3.60
2018-03-26T05:21:50.158Z,3.61
2018-03-26T05:22:50.153Z,3.65
2018-03-26T05:23:50.148Z,3.53
2018-03-26T05:24:50.142Z,3.64
2018-03-26T05:25:50.145Z,3.64
2018-03-26T05:26:50.162Z,3.62
2018-03-26T05:27:50.133Z,3.62
2018-03-26T05:28:50.124Z,3.57
2018-03-26T05:29:50.124Z,3.58
2018-03-26T05:30:50.114Z,3.62
2018-03-26T05:31:50.112Z,3.62
2018-03-26T05:32:50.141Z,3.70
2018-03-26T05:33:50.101Z,3.65
2018-03-26T05:34:50.147Z,3.68
2018-03-26T05:35:50.091Z,3.65
2018-03-26T05:36:50.186Z,3.76
2018-03-26T05:37:50.081Z,3.75
2018-03-26T05:38:50.132Z,3.72
2018-03-26T05:39:50.078Z,3.86
2018-03-26T05:40:50.066Z,3.72
2018-03-26T05:41:50.126Z,3.85
2018-03-26T05:42:50.062Z,3.89
2018-03-26T05:43:50.063Z,3.82
2018-03-26T05:44:50.051Z,3.86
2018-03-26T05:45:50.046Z,3.88
2018-03-26T05:46:50.091Z,3.94
2018-03-26T05:47:50.046Z,3.89
2018-03-26T05:48:50.037Z,3.92
2018-03-26T05:49:50.027Z,3.88
2018-03-26T05:50:50.024Z,3.92
2018-03-26T05:51:50.024Z,3.90
2018-03-26T05:52:50.125Z,3.88
2018-03-26T05:53:52.079Z,3.89
2018-03-26T05:54:50.004Z,3.89
2018-03-26T05:55:49.998Z,3.96
2018-03-26T05:56:50.001Z,3.90
2018-03-26T05:57:50.040Z,3.94
2018-03-26T05:58:50.040Z,3.88
2018-03-26T05:59:50.182Z,3.90
2018-03-26T06:00:50.090Z,3.89
2018-03-26T06:01:49.972Z,3.90
2018-03-26T06:02:49.968Z,3.92
2018-03-26T06:03:49.970Z,3.97
2018-03-26T06:04:49.957Z,3.96
2018-03-26T06:05:49.980Z,3.92
2018-03-26T06:06:49.955Z,3.92
2018-03-26T06:07:49.946Z,3.89
2018-03-26T06:08:49.940Z,3.88
2018-03-26T06:09:49.934Z,3.94
2018-03-26T06:10:49.931Z,3.94
2018-03-26T06:11:49.927Z,3.94
2018-03-26T06:12:49.919Z,3.89
2018-03-26T06:13:49.917Z,3.94
2018-03-26T06:14:49.912Z,3.98
2018-03-26T06:15:49.911Z,4.01
2018-03-26T06:16:49.901Z,3.98
2018-03-26T06:17:49.898Z,4.15
2018-03-26T06:18:49.893Z,4.14
2018-03-26T06:19:49.889Z,4.14
2018-03-26T06:20:49.887Z,4.19
2018-03-26T06:21:49.896Z,4.15
2018-03-26T06:22:49.877Z,4.24
2018-03-26T06:23:49.872Z,4.24
2018-03-26T06:24:49.880Z,4.24
2018-03-26T06:25:49.863Z,4.39
2018-03-26T06:26:49.858Z,4.42
2018-03-26T06:27:49.855Z,4.42
2018-03-26T06:28:49.847Z,4.42
2018-03-26T06:29:49.842Z,4.44
2018-03-26T06:30:49.841Z,4.42
2018-03-26T06:31:49.836Z,4.42
2018-03-26T06:32:49.831Z,4.36
2018-03-26T06:33:49.840Z,4.46
2018-03-26T06:34:49.822Z,4.39
2018-03-26T06:35:49.826Z,4.40
2018-03-26T06:36:49.823Z,4.47
2018-03-26T06:37:49.811Z,4.52
2018-03-26T06:38:49.810Z,4.44
2018-03-26T06:39:49.804Z,4.55
2018-03-26T06:40:49.797Z,4.70
2018-03-26T06:41:49.792Z,4.69
2018-03-26T06:42:49.790Z,4.65
2018-03-26T06:43:49.788Z,4.73
2018-03-26T06:44:49.779Z,4.83
2018-03-26T06:45:49.791Z,4.88
2018-03-26T06:46:49.778Z,4.80
2018-03-26T06:47:49.768Z,4.75
2018-03-26T06:48:49.763Z,4.84
2018-03-26T06:49:49.763Z,4.89
2018-03-26T06:50:49.758Z,4.96
2018-03-26T06:51:49.753Z,4.99
2018-03-26T06:52:49.803Z,5.07
2018-03-26T06:53:49.744Z,5.04
2018-03-26T06:54:49.738Z,5.07
2018-03-26T06:55:49.736Z,5.16
2018-03-26T06:56:49.733Z,5.25
2018-03-26T06:57:49.731Z,5.30
2018-03-26T06:58:49.726Z,5.37
2018-03-26T06:59:49.720Z,5.46
2018-03-26T07:00:49.719Z,5.53
2018-03-26T07:01:49.717Z,5.56
2018-03-26T07:02:49.729Z,5.70
2018-03-26T07:03:49.705Z,5.73
2018-03-26T07:04:49.704Z,5.70
2018-03-26T07:05:49.700Z,5.78
2018-03-26T07:06:49.736Z,5.82
2018-03-26T07:07:49.722Z,5.91
2018-03-26T07:08:49.686Z,5.88
2018-03-26T07:09:49.685Z,5.93
2018-03-26T07:10:49.679Z,5.98
2018-03-26T07:11:49.680Z,6.07
2018-03-26T07:12:49.673Z,6.01
2018-03-26T07:13:49.672Z,6.06
2018-03-26T07:14:49.668Z,6.13
2018-03-26T07:15:49.680Z,6.14
2018-03-26T07:16:49.660Z,6.07
2018-03-26T07:17:49.661Z,6.22
2018-03-26T07:18:49.654Z,6.25
2018-03-26T07:19:49.653Z,6.18
2018-03-26T07:20:49.653Z,6.22
2018-03-26T07:21:49.648Z,6.21
2018-03-26T07:22:49.648Z,6.25
2018-03-26T07:23:49.639Z,6.32
2018-03-26T07:24:49.637Z,6.32
2018-03-26T07:25:49.633Z,6.41
2018-03-26T07:26:49.629Z,6.44
2018-03-26T07:27:49.627Z,6.38
2018-03-26T07:28:49.632Z,6.32
2018-03-26T07:29:49.622Z,6.44
2018-03-26T07:30:49.624Z,6.30
2018-03-26T07:31:49.620Z,6.44
2018-03-26T07:32:49.611Z,6.51
2018-03-26T07:33:49.609Z,6.58
2018-03-26T07:34:49.606Z,6.50
2018-03-26T07:35:49.658Z,6.50
2018-03-26T07:36:49.611Z,6.51
2018-03-26T07:37:49.599Z,6.65
2018-03-26T07:38:49.594Z,6.62
2018-03-26T07:39:49.591Z,6.73
2018-03-26T07:40:49.623Z,6.71
2018-03-26T07:41:49.589Z,6.73
2018-03-26T07:42:49.582Z,6.76
2018-03-26T07:43:49.580Z,6.84
2018-03-26T07:44:49.582Z,6.86
2018-03-26T07:45:49.577Z,6.94
2018-03-26T07:46:49.576Z,6.91
2018-03-26T07:47:49.570Z,6.91
2018-03-26T07:48:49.574Z,7.04
2018-03-26T07:49:49.562Z,6.95
2018-03-26T07:50:49.771Z,6.99
2018-03-26T07:51:49.575Z,7.07
2018-03-26T07:52:49.584Z,6.99
2018-03-26T07:53:49.581Z,7.05
2018-03-26T07:54:49.551Z,7.01
2018-03-26T07:55:49.561Z,7.08
2018-03-26T07:56:49.546Z,7.04
2018-03-26T07:57:49.550Z,7.12
2018-03-26T07:58:49.548Z,7.04
2018-03-26T07:59:49.539Z,6.95
2018-03-26T08:00:49.541Z,6.99
2018-03-26T08:01:49.649Z,6.94
2018-03-26T08:02:49.527Z,7.05
2018-03-26T08:03:49.573Z,6.89
2018-03-26T08:04:49.527Z,6.98
2018-03-26T08:05:49.528Z,6.87
2018-03-26T08:06:49.520Z,6.95
2018-03-26T08:07:49.518Z,6.90
2018-03-26T08:08:49.515Z,7.01
2018-03-26T08:09:49.513Z,6.98
2018-03-26T08:10:49.511Z,6.98
2018-03-26T08:11:49.507Z,7.07
2018-03-26T08:12:49.504Z,7.13
2018-03-26T08:13:49.503Z,7.04
2018-03-26T08:14:49.634Z,7.04
2018-03-26T08:15:51.431Z,7.01
2018-03-26T08:16:49.509Z,7.05
2018-03-26T08:17:49.564Z,7.13
2018-03-26T08:18:49.489Z,7.17
2018-03-26T08:19:49.505Z,7.09
2018-03-26T08:20:49.593Z,7.09
2018-03-26T08:21:49.524Z,7.15
2018-03-26T08:22:49.483Z,7.17
2018-03-26T08:23:49.494Z,7.04
2018-03-26T08:24:49.475Z,7.17
2018-03-26T08:25:49.473Z,7.16
2018-03-26T08:26:49.476Z,7.08
2018-03-26T08:27:49.468Z,7.13
2018-03-26T08:28:49.466Z,7.05
2018-03-26T08:29:49.462Z,7.01
2018-03-26T08:30:49.461Z,7.01
2018-03-26T08:31:49.464Z,6.98
2018-03-26T08:32:49.454Z,7.01
2018-03-26T08:33:49.453Z,6.89
2018-03-26T08:34:49.454Z,6.97
2018-03-26T08:35:49.447Z,6.87
2018-03-26T08:36:49.448Z,7.04
2018-03-26T08:37:49.448Z,6.97
2018-03-26T08:38:49.488Z,6.98
2018-03-26T08:39:49.448Z,6.95
2018-03-26T08:40:49.436Z,7.01
2018-03-26T08:41:49.433Z,6.97
2018-03-26T08:42:49.432Z,6.99
2018-03-26T08:43:49.428Z,6.98
2018-03-26T08:44:49.423Z,7.01
2018-03-26T08:45:49.445Z,6.99
2018-03-26T08:46:49.419Z,6.98
2018-03-26T08:47:49.418Z,6.95
2018-03-26T08:48:49.415Z,6.98
2018-03-26T08:49:49.522Z,6.95
2018-03-26T08:50:49.412Z,6.90
2018-03-26T08:51:49.414Z,6.86
2018-03-26T08:52:49.404Z,6.83
2018-03-26T08:53:49.408Z,6.94
2018-03-26T08:54:49.400Z,6.91
2018-03-26T08:55:49.400Z,6.80
2018-03-26T08:56:49.393Z,6.94
2018-03-26T08:57:49.409Z,6.81
2018-03-26T08:58:49.389Z,6.90
2018-03-26T08:59:49.388Z,6.90
2018-03-26T09:00:49.387Z,6.91
2018-03-26T09:01:49.382Z,6.94
2018-03-26T09:02:49.381Z,6.90
2018-03-26T09:03:49.378Z,6.90
2018-03-26T09:04:49.374Z,6.94
2018-03-26T09:05:49.427Z,6.89
2018-03-26T09:06:49.370Z,6.83
2018-03-26T09:07:49.366Z,6.81
2018-03-26T09:08:49.363Z,6.81
2018-03-26T09:09:49.362Z,6.80
2018-03-26T09:10:49.360Z,6.79
2018-03-26T09:11:49.359Z,6.81
2018-03-26T09:12:49.355Z,6.83
2018-03-26T09:13:49.352Z,6.99
2018-03-26T09:14:49.352Z,6.83
2018-03-26T09:15:49.348Z,6.97
2018-03-26T09:16:49.344Z,6.91
2018-03-26T09:17:49.346Z,6.86
2018-03-26T09:18:49.338Z,6.94
2018-03-26T09:19:49.336Z,6.91
2018-03-26T09:20:49.334Z,6.90
2018-03-26T09:21:49.330Z,6.89
2018-03-26T09:22:49.329Z,6.83
2018-03-26T09:23:49.326Z,6.89
2018-03-26T09:24:49.322Z,6.95
2018-03-26T09:25:49.349Z,6.95
2018-03-26T09:26:49.318Z,6.81
2018-03-26T09:27:49.318Z,6.95
2018-03-26T09:28:49.319Z,6.89
2018-03-26T09:29:49.310Z,6.91
2018-03-26T09:30:49.307Z,6.91
2018-03-26T09:31:49.304Z,6.95
2018-03-26T09:32:49.302Z,6.91
2018-03-26T09:33:49.300Z,6.89
2018-03-26T09:34:49.331Z,6.80
2018-03-26T09:35:49.298Z,6.94
2018-03-26T09:36:49.293Z,6.97
2018-03-26T09:37:49.293Z,6.83
2018-03-26T09:38:49.287Z,6.89
2018-03-26T09:39:49.286Z,6.94
2018-03-26T09:40:49.284Z,6.89
2018-03-26T09:41:49.280Z,6.86
2018-03-26T09:42:49.277Z,6.83
2018-03-26T09:43:49.274Z,6.83
2018-03-26T09:44:49.271Z,6.86
2018-03-26T09:45:49.274Z,6.87
2018-03-26T09:46:49.267Z,6.87
2018-03-26T09:47:49.270Z,6.87
2018-03-26T09:48:49.261Z,6.80
2018-03-26T09:49:49.258Z,6.84
2018-03-26T09:50:49.257Z,6.80
2018-03-26T09:51:49.256Z,6.81
2018-03-26T09:52:49.251Z,6.80
2018-03-26T09:53:49.249Z,6.81
2018-03-26T09:54:49.249Z,6.81
2018-03-26T09:55:49.243Z,6.86
2018-03-26T09:56:49.250Z,6.81
2018-03-26T09:57:49.238Z,6.84
2018-03-26T09:58:49.265Z,6.84
2018-03-26T09:59:49.233Z,6.94
2018-03-26T10:00:49.230Z,6.89
2018-03-26T10:01:49.227Z,6.95
2018-03-26T10:02:49.226Z,6.94
2018-03-26T10:03:49.222Z,6.95
2018-03-26T10:04:49.220Z,7.07
2018-03-26T10:05:49.218Z,7.05
2018-03-26T10:06:49.217Z,7.09
2018-03-26T10:07:49.213Z,7.09
2018-03-26T10:08:49.211Z,7.04
2018-03-26T10:09:49.209Z,7.05
2018-03-26T10:10:49.207Z,7.01
2018-03-26T10:11:49.206Z,6.91
2018-03-26T10:12:49.199Z,6.98
2018-03-26T10:13:49.198Z,6.99
2018-03-26T10:14:49.197Z,6.90
2018-03-26T10:15:49.193Z,7.01
2018-03-26T10:16:49.190Z,6.98
2018-03-26T10:17:49.188Z,7.05
2018-03-26T10:18:49.186Z,6.97
2018-03-26T10:19:49.185Z,7.04
2018-03-26T10:20:49.181Z,6.95
2018-03-26T10:21:49.178Z,6.97
2018-03-26T10:22:49.176Z,6.97
2018-03-26T10:23:49.176Z,6.90
2018-03-26T10:24:49.181Z,6.97
2018-03-26T10:25:49.171Z,6.97
2018-03-26T10:26:49.166Z,7.04
2018-03-26T10:27:49.163Z,6.97
2018-03-26T10:28:49.161Z,7.02
2018-03-26T10:29:49.159Z,7.04
2018-03-26T10:30:49.161Z,7.12
2018-03-26T10:31:49.152Z,7.19
2018-03-26T10:32:49.150Z,7.15
2018-03-26T10:33:49.147Z,7.16
2018-03-26T10:34:49.146Z,7.13
2018-03-26T10:35:49.144Z,7.17
2018-03-26T10:36:49.140Z,7.15
2018-03-26T10:37:49.138Z,7.17
2018-03-26T10:38:49.137Z,7.09
2018-03-26T10:39:49.134Z,7.12
2018-03-26T10:40:49.132Z,7.23
2018-03-26T10:41:49.130Z,7.16
2018-03-26T10:42:49.144Z,7.15
2018-03-26T10:43:49.126Z,7.15
2018-03-26T10:44:49.135Z,7.17
2018-03-26T10:45:49.120Z,7.13
2018-03-26T10:46:49.144Z,7.08
2018-03-26T10:47:49.155Z,7.13
2018-03-26T10:48:49.173Z,7.16
2018-03-26T10:49:49.112Z,7.13
2018-03-26T10:50:49.110Z,7.15
2018-03-26T10:51:49.104Z,7.02
2018-03-26T10:52:49.103Z,7.08
2018-03-26T10:53:49.100Z,7.02
2018-03-26T10:54:49.099Z,7.07
2018-03-26T10:55:49.100Z,7.02
2018-03-26T10:56:49.101Z,7.07
2018-03-26T10:57:49.091Z,7.01
2018-03-26T10:58:49.088Z,6.99
2018-03-26T10:59:49.088Z,7.01
2018-03-26T11:00:49.086Z,6.94
2018-03-26T11:01:49.082Z,6.83
2018-03-26T11:02:49.080Z,6.91
2018-03-26T11:03:49.077Z,6.89
2018-03-26T11:04:49.073Z,6.94
2018-03-26T11:05:49.075Z,6.80
2018-03-26T11:06:49.070Z,6.91
2018-03-26T11:07:49.068Z,6.94
2018-03-26T11:08:49.066Z,6.98
2018-03-26T11:09:49.064Z,7.01
2018-03-26T11:10:49.060Z,6.95
2018-03-26T11:11:49.058Z,6.94
2018-03-26T11:12:49.058Z,6.91
2018-03-26T11:13:49.061Z,6.81
2018-03-26T11:14:49.051Z,6.94
2018-03-26T11:15:49.049Z,6.80
2018-03-26T11:16:49.044Z,6.81
2018-03-26T11:17:49.044Z,6.76
2018-03-26T11:18:49.041Z,6.71
2018-03-26T11:19:49.041Z,6.69
2018-03-26T11:20:49.036Z,6.62
2018-03-26T11:21:49.035Z,6.62
2018-03-26T11:22:49.037Z,6.61
2018-03-26T11:23:49.033Z,6.63
2018-03-26T11:24:49.030Z,6.63
2018-03-26T11:25:49.023Z,6.63
2018-03-26T11:26:49.020Z,6.65
2018-03-26T11:27:49.019Z,6.65
2018-03-26T11:28:49.015Z,6.72
2018-03-26T11:29:49.013Z,6.73
2018-03-26T11:30:49.011Z,6.63
2018-03-26T11:31:49.008Z,6.63
2018-03-26T11:32:49.183Z,6.65
2018-03-26T11:33:49.002Z,6.68
2018-03-26T11:34:49.000Z,6.65
2018-03-26T11:35:49.027Z,6.62
2018-03-26T11:36:49.014Z,6.65
2018-03-26T11:37:49.013Z,6.62
2018-03-26T11:38:48.991Z,6.62
2018-03-26T11:39:48.992Z,6.62
2018-03-26T11:40:48.989Z,6.61
2018-03-26T11:41:49.030Z,6.63
2018-03-26T11:42:48.978Z,6.73
2018-03-26T11:43:48.978Z,6.61
2018-03-26T11:44:48.972Z,6.69
2018-03-26T11:45:48.971Z,6.61
2018-03-26T11:46:48.969Z,6.69
2018-03-26T11:47:48.973Z,6.65
2018-03-26T11:48:48.961Z,6.68
2018-03-26T11:49:48.960Z,6.73
2018-03-26T11:50:48.958Z,6.73
2018-03-26T11:51:48.955Z,6.83
2018-03-26T11:52:48.952Z,6.73
2018-03-26T11:53:48.958Z,6.83
2018-03-26T11:54:48.948Z,6.80
2018-03-26T11:55:48.946Z,6.91
2018-03-26T11:56:48.942Z,6.81
2018-03-26T11:57:48.936Z,6.95
2018-03-26T11:58:48.937Z,6.99
2018-03-26T11:59:48.935Z,6.94
2018-03-26T12:00:48.932Z,6.97
2018-03-26T12:01:48.929Z,7.04
2018-03-26T12:02:48.926Z,6.99
2018-03-26T12:03:48.930Z,7.07
2018-03-26T12:04:48.923Z,7.02
2018-03-26T12:05:48.920Z,7.05
2018-03-26T12:06:48.916Z,7.15
2018-03-26T12:07:48.914Z,7.13
2018-03-26T12:08:48.933Z,7.15
2018-03-26T12:09:49.009Z,7.13
2018-03-26T12:10:48.981Z,7.17
2018-03-26T12:11:49.045Z,7.22
2018-03-26T12:12:48.904Z,7.12
2018-03-26T12:13:48.973Z,7.22
2018-03-26T12:14:48.903Z,7.19
2018-03-26T12:15:48.900Z,7.15
2018-03-26T12:16:48.892Z,7.17
2018-03-26T12:17:48.892Z,7.07
2018-03-26T12:18:48.887Z,7.05
2018-03-26T12:19:48.932Z,7.08
2018-03-26T12:20:48.882Z,6.99
2018-03-26T12:21:48.881Z,7.04
2018-03-26T12:22:48.879Z,7.05
2018-03-26T12:23:48.881Z,6.99
2018-03-26T12:24:48.877Z,6.99
2018-03-26T12:25:48.878Z,6.90
2018-03-26T12:26:48.869Z,6.98
2018-03-26T12:27:48.868Z,6.91
2018-03-26T12:28:48.868Z,6.97
2018-03-26T12:29:48.866Z,6.95
2018-03-26T12:30:48.891Z,6.94
2018-03-26T12:31:48.859Z,6.91
2018-03-26T12:32:48.855Z,6.90
2018-03-26T12:33:48.852Z,6.91
2018-03-26T12:34:48.861Z,6.81
2018-03-26T12:35:48.848Z,6.83
2018-03-26T12:36:48.846Z,6.76
2018-03-26T12:37:48.846Z,6.79
2018-03-26T12:38:48.842Z,6.69
2018-03-26T12:39:48.954Z,6.68
2018-03-26T12:40:48.836Z,6.63
2018-03-26T12:41:48.834Z,6.63
2018-03-26T12:42:48.833Z,6.54
2018-03-26T12:43:48.829Z,6.48
2018-03-26T12:44:48.829Z,6.46
2018-03-26T12:45:48.824Z,6.46
2018-03-26T12:46:48.829Z,6.40
2018-03-26T12:47:48.819Z,6.35
2018-03-26T12:48:48.816Z,6.44
2018-03-26T12:49:48.814Z,6.41
2018-03-26T12:50:48.809Z,6.41
2018-03-26T12:51:48.813Z,6.41
2018-03-26T12:52:48.805Z,6.48
2018-03-26T12:53:48.802Z,6.41
2018-03-26T12:54:48.822Z,6.40
2018-03-26T12:55:48.795Z,6.48
2018-03-26T12:56:48.793Z,6.48
2018-03-26T12:57:48.790Z,6.46
2018-03-26T12:58:48.789Z,6.53
2018-03-26T12:59:48.828Z,6.46
2018-03-26T13:00:48.785Z,6.40
2018-03-26T13:01:48.785Z,6.40
2018-03-26T13:02:48.775Z,6.47
2018-03-26T13:03:48.777Z,6.40
2018-03-26T13:04:48.772Z,6.47
2018-03-26T13:05:48.772Z,6.50
2018-03-26T13:06:48.770Z,6.43
2018-03-26T13:07:48.819Z,6.50
2018-03-26T13:08:48.765Z,6.40
2018-03-26T13:09:48.758Z,6.41
2018-03-26T13:10:48.756Z,6.44
2018-03-26T13:11:48.754Z,6.50
2018-03-26T13:12:48.750Z,6.54
2018-03-26T13:13:48.802Z,6.65
2018-03-26T13:14:48.747Z,6.61
2018-03-26T13:15:48.743Z,6.71
2018-03-26T13:16:48.764Z,6.73
2018-03-26T13:17:48.737Z,6.71
2018-03-26T13:18:48.734Z,6.66